sensor_id;sensor_type;location;lat;lon;timestamp;P1;durP1;ratioP1;P2;durP2;ratioP2
24147;SDS011;12309;51.450;-2.624;2024-01-11T00:00:49;7.43;;;3.70;;
24147;SDS011;12309;51.450;-2.624;2024-01-11T00:03:14;3.60;;;3.03;;
24147;SDS011;12309;51.450;-2.624;2024-01-11T00:05:40;4.90;;;3.17;;
24147;SDS011;12309;51.450;-2.624;2024-01-11T00:08:07;6.57;;;3.43;;
24147;SDS011;12309;51.450;-2.624;2024-01-11T00:10:32;3.43;;;3.07;;
24147;SDS011;12309;51.450;-2.624;2024-01-11T00:12:58;7.37;;;3.30;;
24147;SDS011;12309;51.450;-2.624;2024-01-11T00:15:24;5.60;;;3.33;;
24147;SDS011;12309;51.450;-2.624;2024-01-11T00:17:49;5.17;;;3.37;;
24147;SDS011;12309;51.450;-2.624;2024-01-11T00:20:15;9.73;;;3.80;;
24147;SDS011;12309;51.450;-2.624;2024-01-11T00:22:41;4.77;;;3.50;;
24147;SDS011;12309;51.450;-2.624;2024-01-11T00:25:07;3.67;;;3.30;;
24147;SDS011;12309;51.450;-2.624;2024-01-11T00:27:33;6.70;;;3.33;;
24147;SDS011;12309;51.450;-2.624;2024-01-11T00:29:59;5.03;;;3.13;;
24147;SDS011;12309;51.450;-2.624;2024-01-11T00:32:25;3.97;;;2.97;;
24147;SDS011;12309;51.450;-2.624;2024-01-11T00:34:50;6.70;;;3.57;;
24147;SDS011;12309;51.450;-2.624;2024-01-11T00:37:17;7.17;;;3.30;;
24147;SDS011;12309;51.450;-2.624;2024-01-11T00:39:43;5.07;;;3.10;;
24147;SDS011;12309;51.450;-2.624;2024-01-11T00:42:09;4.97;;;3.10;;
24147;SDS011;12309;51.450;-2.624;2024-01-11T00:44:34;6.53;;;3.00;;
24147;SDS011;12309;51.450;-2.624;2024-01-11T00:47:00;5.30;;;3.40;;
24147;SDS011;12309;51.450;-2.624;2024-01-11T00:49:25;3.67;;;3.10;;
24147;SDS011;12309;51.450;-2.624;2024-01-11T00:51:51;4.33;;;3.20;;
24147;SDS011;12309;51.450;-2.624;2024-01-11T00:54:17;5.30;;;3.37;;
24147;SDS011;12309;51.450;-2.624;2024-01-11T00:56:42;7.90;;;3.47;;
24147;SDS011;12309;51.450;-2.624;2024-01-11T00:59:08;5.57;;;3.60;;
24147;SDS011;12309;51.450;-2.624;2024-01-11T01:01:34;6.57;;;3.50;;
24147;SDS011;12309;51.450;-2.624;2024-01-11T01:03:59;6.33;;;3.20;;
24147;SDS011;12309;51.450;-2.624;2024-01-11T01:06:25;5.93;;;3.53;;
24147;SDS011;12309;51.450;-2.624;2024-01-11T01:08:50;7.50;;;3.60;;
24147;SDS011;12309;51.450;-2.624;2024-01-11T01:11:16;5.43;;;3.60;;
24147;SDS011;12309;51.450;-2.624;2024-01-11T01:13:42;4.67;;;3.50;;
24147;SDS011;12309;51.450;-2.624;2024-01-11T01:16:08;10.60;;;4.00;;
24147;SDS011;12309;51.450;-2.624;2024-01-11T01:18:33;4.37;;;3.97;;
24147;SDS011;12309;51.450;-2.624;2024-01-11T01:20:59;10.47;;;3.70;;
24147;SDS011;12309;51.450;-2.624;2024-01-11T01:23:25;5.00;;;3.50;;
24147;SDS011;12309;51.450;-2.624;2024-01-11T01:25:50;4.50;;;3.60;;
24147;SDS011;12309;51.450;-2.624;2024-01-11T01:28:16;4.83;;;3.57;;
24147;SDS011;12309;51.450;-2.624;2024-01-11T01:30:42;5.03;;;3.60;;
24147;SDS011;12309;51.450;-2.624;2024-01-11T01:33:07;4.87;;;3.80;;
24147;SDS011;12309;51.450;-2.624;2024-01-11T01:35:33;9.40;;;4.30;;
24147;SDS011;12309;51.450;-2.624;2024-01-11T01:37:59;8.63;;;3.83;;
24147;SDS011;12309;51.450;-2.624;2024-01-11T01:40:25;7.40;;;3.90;;
24147;SDS011;12309;51.450;-2.624;2024-01-11T01:42:54;4.03;;;3.53;;
24147;SDS011;12309;51.450;-2.624;2024-01-11T01:45:24;9.20;;;4.10;;
24147;SDS011;12309;51.450;-2.624;2024-01-11T01:47:50;6.67;;;4.67;;
24147;SDS011;12309;51.450;-2.624;2024-01-11T01:50:16;4.57;;;3.60;;
24147;SDS011;12309;51.450;-2.624;2024-01-11T01:52:43;6.53;;;3.87;;
24147;SDS011;12309;51.450;-2.624;2024-01-11T01:55:10;5.33;;;4.20;;
24147;SDS011;12309;51.450;-2.624;2024-01-11T01:57:37;7.50;;;3.70;;
24147;SDS011;12309;51.450;-2.624;2024-01-11T02:00:05;8.77;;;3.70;;
24147;SDS011;12309;51.450;-2.624;2024-01-11T02:02:33;5.50;;;4.10;;
24147;SDS011;12309;51.450;-2.624;2024-01-11T02:05:00;5.20;;;3.83;;
24147;SDS011;12309;51.450;-2.624;2024-01-11T02:07:26;6.00;;;3.53;;
24147;SDS011;12309;51.450;-2.624;2024-01-11T02:09:52;5.13;;;3.60;;
24147;SDS011;12309;51.450;-2.624;2024-01-11T02:12:18;9.90;;;3.93;;
24147;SDS011;12309;51.450;-2.624;2024-01-11T02:14:44;5.37;;;3.83;;
24147;SDS011;12309;51.450;-2.624;2024-01-11T02:17:09;7.27;;;3.80;;
24147;SDS011;12309;51.450;-2.624;2024-01-11T02:19:35;5.40;;;3.60;;
24147;SDS011;12309;51.450;-2.624;2024-01-11T02:22:02;6.03;;;3.33;;
24147;SDS011;12309;51.450;-2.624;2024-01-11T02:24:45;6.40;;;3.70;;
24147;SDS011;12309;51.450;-2.624;2024-01-11T02:27:11;6.67;;;3.93;;
24147;SDS011;12309;51.450;-2.624;2024-01-11T02:29:37;4.63;;;3.67;;
24147;SDS011;12309;51.450;-2.624;2024-01-11T02:32:02;4.33;;;3.90;;
24147;SDS011;12309;51.450;-2.624;2024-01-11T02:34:31;4.90;;;3.93;;
24147;SDS011;12309;51.450;-2.624;2024-01-11T02:36:56;6.77;;;3.87;;
24147;SDS011;12309;51.450;-2.624;2024-01-11T02:39:23;5.97;;;3.93;;
24147;SDS011;12309;51.450;-2.624;2024-01-11T02:41:50;6.60;;;3.90;;
24147;SDS011;12309;51.450;-2.624;2024-01-11T02:44:17;5.73;;;4.00;;
24147;SDS011;12309;51.450;-2.624;2024-01-11T02:46:43;4.17;;;3.77;;
24147;SDS011;12309;51.450;-2.624;2024-01-11T02:49:08;6.70;;;3.93;;
24147;SDS011;12309;51.450;-2.624;2024-01-11T02:51:34;7.67;;;3.77;;
24147;SDS011;12309;51.450;-2.624;2024-01-11T02:54:01;6.00;;;3.67;;
24147;SDS011;12309;51.450;-2.624;2024-01-11T02:56:27;7.00;;;3.60;;
24147;SDS011;12309;51.450;-2.624;2024-01-11T02:58:52;10.00;;;4.00;;
24147;SDS011;12309;51.450;-2.624;2024-01-11T03:01:18;6.50;;;3.77;;
24147;SDS011;12309;51.450;-2.624;2024-01-11T03:03:44;6.80;;;3.83;;
24147;SDS011;12309;51.450;-2.624;2024-01-11T03:06:10;6.83;;;4.07;;
24147;SDS011;12309;51.450;-2.624;2024-01-11T03:08:35;5.87;;;4.07;;
24147;SDS011;12309;51.450;-2.624;2024-01-11T03:11:01;5.77;;;3.73;;
24147;SDS011;12309;51.450;-2.624;2024-01-11T03:13:27;7.13;;;3.70;;
24147;SDS011;12309;51.450;-2.624;2024-01-11T03:15:52;5.83;;;4.50;;
24147;SDS011;12309;51.450;-2.624;2024-01-11T03:18:18;8.23;;;3.63;;
24147;SDS011;12309;51.450;-2.624;2024-01-11T03:20:44;12.40;;;4.23;;
24147;SDS011;12309;51.450;-2.624;2024-01-11T03:23:09;5.67;;;3.60;;
24147;SDS011;12309;51.450;-2.624;2024-01-11T03:25:35;4.67;;;3.90;;
24147;SDS011;12309;51.450;-2.624;2024-01-11T03:28:01;4.90;;;3.70;;
24147;SDS011;12309;51.450;-2.624;2024-01-11T03:30:27;6.03;;;3.90;;
24147;SDS011;12309;51.450;-2.624;2024-01-11T03:32:53;7.93;;;3.77;;
24147;SDS011;12309;51.450;-2.624;2024-01-11T03:35:20;7.83;;;3.70;;
24147;SDS011;12309;51.450;-2.624;2024-01-11T03:37:46;6.50;;;3.60;;
24147;SDS011;12309;51.450;-2.624;2024-01-11T03:40:12;11.53;;;4.00;;
24147;SDS011;12309;51.450;-2.624;2024-01-11T03:42:37;8.50;;;4.37;;
24147;SDS011;12309;51.450;-2.624;2024-01-11T03:45:03;6.03;;;3.63;;
24147;SDS011;12309;51.450;-2.624;2024-01-11T03:47:29;7.63;;;4.00;;
24147;SDS011;12309;51.450;-2.624;2024-01-11T03:49:55;6.03;;;4.50;;
24147;SDS011;12309;51.450;-2.624;2024-01-11T03:52:21;5.63;;;4.17;;
24147;SDS011;12309;51.450;-2.624;2024-01-11T03:54:47;6.77;;;3.97;;
24147;SDS011;12309;51.450;-2.624;2024-01-11T03:57:13;5.43;;;4.00;;
24147;SDS011;12309;51.450;-2.624;2024-01-11T03:59:39;5.00;;;4.00;;
24147;SDS011;12309;51.450;-2.624;2024-01-11T04:02:05;11.90;;;4.73;;
24147;SDS011;12309;51.450;-2.624;2024-01-11T04:04:32;7.03;;;4.13;;
24147;SDS011;12309;51.450;-2.624;2024-01-11T04:06:58;4.73;;;4.00;;
24147;SDS011;12309;51.450;-2.624;2024-01-11T04:09:23;6.23;;;4.00;;
24147;SDS011;12309;51.450;-2.624;2024-01-11T04:11:49;5.90;;;4.30;;
24147;SDS011;12309;51.450;-2.624;2024-01-11T04:14:14;6.03;;;3.77;;
24147;SDS011;12309;51.450;-2.624;2024-01-11T04:16:40;4.80;;;4.20;;
24147;SDS011;12309;51.450;-2.624;2024-01-11T04:19:07;5.13;;;3.93;;
24147;SDS011;12309;51.450;-2.624;2024-01-11T04:21:33;9.97;;;4.40;;
24147;SDS011;12309;51.450;-2.624;2024-01-11T04:23:59;5.27;;;4.43;;
24147;SDS011;12309;51.450;-2.624;2024-01-11T04:26:25;6.57;;;3.97;;
24147;SDS011;12309;51.450;-2.624;2024-01-11T04:28:51;4.93;;;3.73;;
24147;SDS011;12309;51.450;-2.624;2024-01-11T04:31:17;8.70;;;4.40;;
24147;SDS011;12309;51.450;-2.624;2024-01-11T04:33:43;8.83;;;4.27;;
24147;SDS011;12309;51.450;-2.624;2024-01-11T04:36:09;9.63;;;4.50;;
24147;SDS011;12309;51.450;-2.624;2024-01-11T04:38:35;8.37;;;3.90;;
24147;SDS011;12309;51.450;-2.624;2024-01-11T04:41:02;8.83;;;4.03;;
24147;SDS011;12309;51.450;-2.624;2024-01-11T04:43:32;8.70;;;3.80;;
24147;SDS011;12309;51.450;-2.624;2024-01-11T04:45:58;7.93;;;4.37;;
24147;SDS011;12309;51.450;-2.624;2024-01-11T04:48:24;9.07;;;4.00;;
24147;SDS011;12309;51.450;-2.624;2024-01-11T04:50:49;8.57;;;3.80;;
24147;SDS011;12309;51.450;-2.624;2024-01-11T04:53:15;7.83;;;4.20;;
24147;SDS011;12309;51.450;-2.624;2024-01-11T04:55:41;8.97;;;3.50;;
24147;SDS011;12309;51.450;-2.624;2024-01-11T04:58:06;8.57;;;3.67;;
24147;SDS011;12309;51.450;-2.624;2024-01-11T05:00:32;7.10;;;3.63;;
24147;SDS011;12309;51.450;-2.624;2024-01-11T05:02:58;10.67;;;3.50;;
24147;SDS011;12309;51.450;-2.624;2024-01-11T05:05:23;11.67;;;4.10;;
24147;SDS011;12309;51.450;-2.624;2024-01-11T05:07:49;7.80;;;3.77;;
24147;SDS011;12309;51.450;-2.624;2024-01-11T05:10:15;8.77;;;3.47;;
24147;SDS011;12309;51.450;-2.624;2024-01-11T05:12:40;10.87;;;3.77;;
24147;SDS011;12309;51.450;-2.624;2024-01-11T05:15:06;11.33;;;3.70;;
24147;SDS011;12309;51.450;-2.624;2024-01-11T05:17:35;6.07;;;4.03;;
24147;SDS011;12309;51.450;-2.624;2024-01-11T05:20:00;8.67;;;3.70;;
24147;SDS011;12309;51.450;-2.624;2024-01-11T05:22:26;10.77;;;3.80;;
24147;SDS011;12309;51.450;-2.624;2024-01-11T05:24:51;10.93;;;3.50;;
24147;SDS011;12309;51.450;-2.624;2024-01-11T05:27:17;4.27;;;3.20;;
24147;SDS011;12309;51.450;-2.624;2024-01-11T05:29:43;7.97;;;3.63;;
24147;SDS011;12309;51.450;-2.624;2024-01-11T05:32:08;7.83;;;3.53;;
24147;SDS011;12309;51.450;-2.624;2024-01-11T05:34:34;9.07;;;3.27;;
24147;SDS011;12309;51.450;-2.624;2024-01-11T05:36:59;8.50;;;3.40;;
24147;SDS011;12309;51.450;-2.624;2024-01-11T05:39:25;6.20;;;3.43;;
24147;SDS011;12309;51.450;-2.624;2024-01-11T05:41:51;6.87;;;3.67;;
24147;SDS011;12309;51.450;-2.624;2024-01-11T05:44:17;11.50;;;4.07;;
24147;SDS011;12309;51.450;-2.624;2024-01-11T05:46:42;10.63;;;3.57;;
24147;SDS011;12309;51.450;-2.624;2024-01-11T05:49:09;6.13;;;3.20;;
24147;SDS011;12309;51.450;-2.624;2024-01-11T05:51:35;10.03;;;4.00;;
24147;SDS011;12309;51.450;-2.624;2024-01-11T05:54:00;6.83;;;3.50;;
24147;SDS011;12309;51.450;-2.624;2024-01-11T05:56:26;10.43;;;3.93;;
24147;SDS011;12309;51.450;-2.624;2024-01-11T05:58:51;8.73;;;3.63;;
24147;SDS011;12309;51.450;-2.624;2024-01-11T06:01:17;14.93;;;3.67;;
24147;SDS011;12309;51.450;-2.624;2024-01-11T06:03:43;6.83;;;3.37;;
24147;SDS011;12309;51.450;-2.624;2024-01-11T06:06:08;9.63;;;3.40;;
24147;SDS011;12309;51.450;-2.624;2024-01-11T06:08:34;9.47;;;3.87;;
24147;SDS011;12309;51.450;-2.624;2024-01-11T06:11:00;5.40;;;3.13;;
24147;SDS011;12309;51.450;-2.624;2024-01-11T06:13:25;11.50;;;3.53;;
24147;SDS011;12309;51.450;-2.624;2024-01-11T06:15:51;12.10;;;3.63;;
24147;SDS011;12309;51.450;-2.624;2024-01-11T06:18:17;6.07;;;3.17;;
24147;SDS011;12309;51.450;-2.624;2024-01-11T06:20:42;5.73;;;3.10;;
24147;SDS011;12309;51.450;-2.624;2024-01-11T06:23:08;10.30;;;3.33;;
24147;SDS011;12309;51.450;-2.624;2024-01-11T06:25:34;12.07;;;3.30;;
24147;SDS011;12309;51.450;-2.624;2024-01-11T06:28:00;8.70;;;3.23;;
24147;SDS011;12309;51.450;-2.624;2024-01-11T06:30:27;16.87;;;3.83;;
24147;SDS011;12309;51.450;-2.624;2024-01-11T06:32:53;11.00;;;3.37;;
24147;SDS011;12309;51.450;-2.624;2024-01-11T06:35:18;11.63;;;3.87;;
24147;SDS011;12309;51.450;-2.624;2024-01-11T06:37:44;8.67;;;3.40;;
24147;SDS011;12309;51.450;-2.624;2024-01-11T06:40:10;11.43;;;3.37;;
24147;SDS011;12309;51.450;-2.624;2024-01-11T06:42:36;6.37;;;3.63;;
24147;SDS011;12309;51.450;-2.624;2024-01-11T06:45:01;10.57;;;3.40;;
24147;SDS011;12309;51.450;-2.624;2024-01-11T06:47:28;7.33;;;3.07;;
24147;SDS011;12309;51.450;-2.624;2024-01-11T06:49:54;6.23;;;3.10;;
24147;SDS011;12309;51.450;-2.624;2024-01-11T06:52:19;8.80;;;3.43;;
24147;SDS011;12309;51.450;-2.624;2024-01-11T06:54:45;7.23;;;3.23;;
24147;SDS011;12309;51.450;-2.624;2024-01-11T06:57:11;9.97;;;3.40;;
24147;SDS011;12309;51.450;-2.624;2024-01-11T06:59:36;6.47;;;3.37;;
24147;SDS011;12309;51.450;-2.624;2024-01-11T07:02:02;6.73;;;3.43;;
24147;SDS011;12309;51.450;-2.624;2024-01-11T07:04:28;7.67;;;3.40;;
24147;SDS011;12309;51.450;-2.624;2024-01-11T07:06:54;11.27;;;3.53;;
24147;SDS011;12309;51.450;-2.624;2024-01-11T07:09:20;7.67;;;3.47;;
24147;SDS011;12309;51.450;-2.624;2024-01-11T07:11:45;12.13;;;3.30;;
24147;SDS011;12309;51.450;-2.624;2024-01-11T07:14:11;9.10;;;3.37;;
24147;SDS011;12309;51.450;-2.624;2024-01-11T07:16:37;9.03;;;3.40;;
24147;SDS011;12309;51.450;-2.624;2024-01-11T07:19:02;10.10;;;3.60;;
24147;SDS011;12309;51.450;-2.624;2024-01-11T07:21:28;8.87;;;3.20;;
24147;SDS011;12309;51.450;-2.624;2024-01-11T07:23:59;6.57;;;3.30;;
24147;SDS011;12309;51.450;-2.624;2024-01-11T07:26:25;8.87;;;3.17;;
24147;SDS011;12309;51.450;-2.624;2024-01-11T07:28:51;12.13;;;3.07;;
24147;SDS011;12309;51.450;-2.624;2024-01-11T07:31:19;10.27;;;3.40;;
24147;SDS011;12309;51.450;-2.624;2024-01-11T07:33:45;7.90;;;2.40;;
24147;SDS011;12309;51.450;-2.624;2024-01-11T07:36:11;8.97;;;3.03;;
24147;SDS011;12309;51.450;-2.624;2024-01-11T07:38:37;7.57;;;2.70;;
24147;SDS011;12309;51.450;-2.624;2024-01-11T07:41:02;11.03;;;2.97;;
24147;SDS011;12309;51.450;-2.624;2024-01-11T07:43:28;10.90;;;2.67;;
24147;SDS011;12309;51.450;-2.624;2024-01-11T07:45:54;9.07;;;3.10;;
24147;SDS011;12309;51.450;-2.624;2024-01-11T07:48:21;10.57;;;2.80;;
24147;SDS011;12309;51.450;-2.624;2024-01-11T07:50:48;6.73;;;2.70;;
24147;SDS011;12309;51.450;-2.624;2024-01-11T07:53:14;7.87;;;2.87;;
24147;SDS011;12309;51.450;-2.624;2024-01-11T07:55:40;8.47;;;2.87;;
24147;SDS011;12309;51.450;-2.624;2024-01-11T07:58:06;7.20;;;2.33;;
24147;SDS011;12309;51.450;-2.624;2024-01-11T08:03:07;8.60;;;3.17;;
24147;SDS011;12309;51.450;-2.624;2024-01-11T08:05:33;14.33;;;3.13;;
24147;SDS011;12309;51.450;-2.624;2024-01-11T08:07:59;4.67;;;2.70;;
24147;SDS011;12309;51.450;-2.624;2024-01-11T08:10:28;10.73;;;3.40;;
24147;SDS011;12309;51.450;-2.624;2024-01-11T08:12:53;14.27;;;2.93;;
24147;SDS011;12309;51.450;-2.624;2024-01-11T08:15:20;11.17;;;2.77;;
24147;SDS011;12309;51.450;-2.624;2024-01-11T08:17:46;11.30;;;2.97;;
24147;SDS011;12309;51.450;-2.624;2024-01-11T08:20:12;7.20;;;2.70;;
24147;SDS011;12309;51.450;-2.624;2024-01-11T08:22:41;8.13;;;2.60;;
24147;SDS011;12309;51.450;-2.624;2024-01-11T08:25:08;6.03;;;2.63;;
24147;SDS011;12309;51.450;-2.624;2024-01-11T08:27:34;8.20;;;2.63;;
24147;SDS011;12309;51.450;-2.624;2024-01-11T08:30:00;8.77;;;2.70;;
24147;SDS011;12309;51.450;-2.624;2024-01-11T08:32:27;6.57;;;2.70;;
24147;SDS011;12309;51.450;-2.624;2024-01-11T08:34:53;6.23;;;2.53;;
24147;SDS011;12309;51.450;-2.624;2024-01-11T08:37:19;7.73;;;2.70;;
24147;SDS011;12309;51.450;-2.624;2024-01-11T08:39:44;7.40;;;2.50;;
24147;SDS011;12309;51.450;-2.624;2024-01-11T08:42:11;6.93;;;2.47;;
24147;SDS011;12309;51.450;-2.624;2024-01-11T08:44:41;5.33;;;2.80;;
24147;SDS011;12309;51.450;-2.624;2024-01-11T08:47:07;10.47;;;2.97;;
24147;SDS011;12309;51.450;-2.624;2024-01-11T08:49:35;8.03;;;2.43;;
24147;SDS011;12309;51.450;-2.624;2024-01-11T08:52:01;6.10;;;2.37;;
24147;SDS011;12309;51.450;-2.624;2024-01-11T08:54:27;7.33;;;2.57;;
24147;SDS011;12309;51.450;-2.624;2024-01-11T08:56:53;9.20;;;2.53;;
24147;SDS011;12309;51.450;-2.624;2024-01-11T08:59:19;10.17;;;2.57;;
24147;SDS011;12309;51.450;-2.624;2024-01-11T09:01:44;10.90;;;2.67;;
24147;SDS011;12309;51.450;-2.624;2024-01-11T09:04:10;4.63;;;2.20;;
24147;SDS011;12309;51.450;-2.624;2024-01-11T09:06:36;5.17;;;2.10;;
24147;SDS011;12309;51.450;-2.624;2024-01-11T09:09:01;5.97;;;2.40;;
24147;SDS011;12309;51.450;-2.624;2024-01-11T09:11:27;6.53;;;2.27;;
24147;SDS011;12309;51.450;-2.624;2024-01-11T09:13:53;4.87;;;2.10;;
24147;SDS011;12309;51.450;-2.624;2024-01-11T09:16:18;5.80;;;2.10;;
24147;SDS011;12309;51.450;-2.624;2024-01-11T09:18:44;7.37;;;2.00;;
24147;SDS011;12309;51.450;-2.624;2024-01-11T09:21:11;8.07;;;2.10;;
24147;SDS011;12309;51.450;-2.624;2024-01-11T09:23:37;7.00;;;1.90;;
24147;SDS011;12309;51.450;-2.624;2024-01-11T09:26:03;4.10;;;1.67;;
24147;SDS011;12309;51.450;-2.624;2024-01-11T09:28:28;6.47;;;1.83;;
24147;SDS011;12309;51.450;-2.624;2024-01-11T09:30:54;6.50;;;1.60;;
24147;SDS011;12309;51.450;-2.624;2024-01-11T09:33:24;5.70;;;1.60;;
24147;SDS011;12309;51.450;-2.624;2024-01-11T09:35:51;7.53;;;1.53;;
24147;SDS011;12309;51.450;-2.624;2024-01-11T09:38:16;5.37;;;1.30;;
24147;SDS011;12309;51.450;-2.624;2024-01-11T09:40:42;8.37;;;1.50;;
24147;SDS011;12309;51.450;-2.624;2024-01-11T09:43:07;3.93;;;1.13;;
24147;SDS011;12309;51.450;-2.624;2024-01-11T09:45:35;7.93;;;1.30;;
24147;SDS011;12309;51.450;-2.624;2024-01-11T09:48:02;3.10;;;1.33;;
24147;SDS011;12309;51.450;-2.624;2024-01-11T09:50:31;4.67;;;1.10;;
24147;SDS011;12309;51.450;-2.624;2024-01-11T09:52:57;4.70;;;1.50;;
24147;SDS011;12309;51.450;-2.624;2024-01-11T09:55:28;5.13;;;1.13;;
24147;SDS011;12309;51.450;-2.624;2024-01-11T09:57:55;5.27;;;1.40;;
24147;SDS011;12309;51.450;-2.624;2024-01-11T10:00:24;10.10;;;1.30;;
24147;SDS011;12309;51.450;-2.624;2024-01-11T10:02:51;6.13;;;1.03;;
24147;SDS011;12309;51.450;-2.624;2024-01-11T10:05:17;8.23;;;1.53;;
24147;SDS011;12309;51.450;-2.624;2024-01-11T10:07:43;5.67;;;1.60;;
24147;SDS011;12309;51.450;-2.624;2024-01-11T10:10:10;14.30;;;1.70;;
24147;SDS011;12309;51.450;-2.624;2024-01-11T10:12:40;5.10;;;1.40;;
24147;SDS011;12309;51.450;-2.624;2024-01-11T10:15:06;2.97;;;1.17;;
24147;SDS011;12309;51.450;-2.624;2024-01-11T10:17:36;8.40;;;1.40;;
24147;SDS011;12309;51.450;-2.624;2024-01-11T10:20:14;5.77;;;1.33;;
24147;SDS011;12309;51.450;-2.624;2024-01-11T10:22:41;5.03;;;1.27;;
24147;SDS011;12309;51.450;-2.624;2024-01-11T10:25:11;3.60;;;1.27;;
24147;SDS011;12309;51.450;-2.624;2024-01-11T10:27:42;3.73;;;1.03;;
24147;SDS011;12309;51.450;-2.624;2024-01-11T10:30:09;7.30;;;1.23;;
24147;SDS011;12309;51.450;-2.624;2024-01-11T10:32:38;5.60;;;1.50;;
24147;SDS011;12309;51.450;-2.624;2024-01-11T10:35:04;4.50;;;1.40;;
24147;SDS011;12309;51.450;-2.624;2024-01-11T10:37:31;5.10;;;1.13;;
24147;SDS011;12309;51.450;-2.624;2024-01-11T10:40:03;4.00;;;1.10;;
24147;SDS011;12309;51.450;-2.624;2024-01-11T10:42:43;6.30;;;1.43;;
24147;SDS011;12309;51.450;-2.624;2024-01-11T10:45:19;3.73;;;1.30;;
24147;SDS011;12309;51.450;-2.624;2024-01-11T10:47:55;5.20;;;0.90;;
24147;SDS011;12309;51.450;-2.624;2024-01-11T10:50:26;3.73;;;1.30;;
24147;SDS011;12309;51.450;-2.624;2024-01-11T10:55:29;9.03;;;1.47;;
24147;SDS011;12309;51.450;-2.624;2024-01-11T10:57:56;5.13;;;1.20;;
24147;SDS011;12309;51.450;-2.624;2024-01-11T11:00:24;3.50;;;1.13;;
24147;SDS011;12309;51.450;-2.624;2024-01-11T11:02:52;5.07;;;1.10;;
24147;SDS011;12309;51.450;-2.624;2024-01-11T11:05:20;6.10;;;1.63;;
24147;SDS011;12309;51.450;-2.624;2024-01-11T11:07:48;6.37;;;1.20;;
24147;SDS011;12309;51.450;-2.624;2024-01-11T11:10:15;4.07;;;1.17;;
24147;SDS011;12309;51.450;-2.624;2024-01-11T11:12:43;6.17;;;1.00;;
24147;SDS011;12309;51.450;-2.624;2024-01-11T11:15:12;3.17;;;1.53;;
24147;SDS011;12309;51.450;-2.624;2024-01-11T11:17:38;6.33;;;1.40;;
24147;SDS011;12309;51.450;-2.624;2024-01-11T11:20:06;4.07;;;1.30;;
24147;SDS011;12309;51.450;-2.624;2024-01-11T11:22:33;5.10;;;1.37;;
24147;SDS011;12309;51.450;-2.624;2024-01-11T11:25:07;4.33;;;1.23;;
24147;SDS011;12309;51.450;-2.624;2024-01-11T11:27:48;2.03;;;1.23;;
24147;SDS011;12309;51.450;-2.624;2024-01-11T11:30:14;5.80;;;1.10;;
24147;SDS011;12309;51.450;-2.624;2024-01-11T11:32:43;4.63;;;1.10;;
24147;SDS011;12309;51.450;-2.624;2024-01-11T11:35:09;8.23;;;1.10;;
24147;SDS011;12309;51.450;-2.624;2024-01-11T11:37:39;7.27;;;1.37;;
24147;SDS011;12309;51.450;-2.624;2024-01-11T11:40:05;8.73;;;1.23;;
24147;SDS011;12309;51.450;-2.624;2024-01-11T11:42:36;4.77;;;1.10;;
24147;SDS011;12309;51.450;-2.624;2024-01-11T11:45:02;3.60;;;1.10;;
24147;SDS011;12309;51.450;-2.624;2024-01-11T11:47:34;6.13;;;1.60;;
24147;SDS011;12309;51.450;-2.624;2024-01-11T11:50:07;5.60;;;1.27;;
24147;SDS011;12309;51.450;-2.624;2024-01-11T11:52:35;4.17;;;1.60;;
24147;SDS011;12309;51.450;-2.624;2024-01-11T11:55:02;3.87;;;1.60;;
24147;SDS011;12309;51.450;-2.624;2024-01-11T11:57:30;7.20;;;1.83;;
24147;SDS011;12309;51.450;-2.624;2024-01-11T11:59:56;7.93;;;1.40;;
24147;SDS011;12309;51.450;-2.624;2024-01-11T12:02:24;5.70;;;1.60;;
24147;SDS011;12309;51.450;-2.624;2024-01-11T12:04:50;4.30;;;1.80;;
24147;SDS011;12309;51.450;-2.624;2024-01-11T12:07:17;5.72;;;1.83;;
24147;SDS011;12309;51.450;-2.624;2024-01-11T12:09:42;5.53;;;1.50;;
24147;SDS011;12309;51.450;-2.624;2024-01-11T12:12:08;2.17;;;1.30;;
24147;SDS011;12309;51.450;-2.624;2024-01-11T12:14:35;2.15;;;1.08;;
24147;SDS011;12309;51.450;-2.624;2024-01-11T12:17:01;5.93;;;1.60;;
24147;SDS011;12309;51.450;-2.624;2024-01-11T12:19:27;6.85;;;2.05;;
24147;SDS011;12309;51.450;-2.624;2024-01-11T12:21:53;6.03;;;1.20;;
24147;SDS011;12309;51.450;-2.624;2024-01-11T12:24:19;5.20;;;1.70;;
24147;SDS011;12309;51.450;-2.624;2024-01-11T12:26:49;5.28;;;1.27;;
24147;SDS011;12309;51.450;-2.624;2024-01-11T12:29:19;6.57;;;1.88;;
24147;SDS011;12309;51.450;-2.624;2024-01-11T12:31:45;8.98;;;1.83;;
24147;SDS011;12309;51.450;-2.624;2024-01-11T12:34:14;5.80;;;2.03;;
24147;SDS011;12309;51.450;-2.624;2024-01-11T12:36:41;12.50;;;2.63;;
24147;SDS011;12309;51.450;-2.624;2024-01-11T12:39:07;7.80;;;2.30;;
24147;SDS011;12309;51.450;-2.624;2024-01-11T12:41:34;6.38;;;2.55;;
24147;SDS011;12309;51.450;-2.624;2024-01-11T12:44:00;9.95;;;2.60;;
24147;SDS011;12309;51.450;-2.624;2024-01-11T12:46:26;6.57;;;2.80;;
24147;SDS011;12309;51.450;-2.624;2024-01-11T12:48:52;6.70;;;2.40;;
24147;SDS011;12309;51.450;-2.624;2024-01-11T12:51:18;4.05;;;1.48;;
24147;SDS011;12309;51.450;-2.624;2024-01-11T12:53:47;4.82;;;1.77;;
24147;SDS011;12309;51.450;-2.624;2024-01-11T12:56:14;4.55;;;1.42;;
24147;SDS011;12309;51.450;-2.624;2024-01-11T12:58:41;4.90;;;1.48;;
24147;SDS011;12309;51.450;-2.624;2024-01-11T13:01:07;3.58;;;1.10;;
24147;SDS011;12309;51.450;-2.624;2024-01-11T13:03:35;6.30;;;1.33;;
24147;SDS011;12309;51.450;-2.624;2024-01-11T13:06:01;5.53;;;1.23;;
24147;SDS011;12309;51.450;-2.624;2024-01-11T13:08:29;4.10;;;1.40;;
24147;SDS011;12309;51.450;-2.624;2024-01-11T13:11:01;5.13;;;1.67;;
24147;SDS011;12309;51.450;-2.624;2024-01-11T13:13:31;2.78;;;1.13;;
24147;SDS011;12309;51.450;-2.624;2024-01-11T13:16:00;4.05;;;1.38;;
24147;SDS011;12309;51.450;-2.624;2024-01-11T13:18:39;3.28;;;1.40;;
24147;SDS011;12309;51.450;-2.624;2024-01-11T13:21:05;3.38;;;1.42;;
24147;SDS011;12309;51.450;-2.624;2024-01-11T13:23:34;6.25;;;1.25;;
24147;SDS011;12309;51.450;-2.624;2024-01-11T13:26:02;3.90;;;1.55;;
24147;SDS011;12309;51.450;-2.624;2024-01-11T13:28:29;4.30;;;1.60;;
24147;SDS011;12309;51.450;-2.624;2024-01-11T13:30:55;8.85;;;2.08;;
24147;SDS011;12309;51.450;-2.624;2024-01-11T13:33:22;10.02;;;3.30;;
24147;SDS011;12309;51.450;-2.624;2024-01-11T13:35:48;4.05;;;1.60;;
24147;SDS011;12309;51.450;-2.624;2024-01-11T13:38:14;7.40;;;2.78;;
24147;SDS011;12309;51.450;-2.624;2024-01-11T13:40:40;11.85;;;2.20;;
24147;SDS011;12309;51.450;-2.624;2024-01-11T13:43:08;3.55;;;1.98;;
24147;SDS011;12309;51.450;-2.624;2024-01-11T13:45:34;3.78;;;1.60;;
24147;SDS011;12309;51.450;-2.624;2024-01-11T13:48:03;3.92;;;1.90;;
24147;SDS011;12309;51.450;-2.624;2024-01-11T13:50:30;4.35;;;2.03;;
24147;SDS011;12309;51.450;-2.624;2024-01-11T13:52:56;5.70;;;2.00;;
24147;SDS011;12309;51.450;-2.624;2024-01-11T13:55:21;3.63;;;1.52;;
24147;SDS011;12309;51.450;-2.624;2024-01-11T13:57:48;6.38;;;1.52;;
24147;SDS011;12309;51.450;-2.624;2024-01-11T14:00:15;6.13;;;1.45;;
24147;SDS011;12309;51.450;-2.624;2024-01-11T14:02:42;3.92;;;1.50;;
24147;SDS011;12309;51.450;-2.624;2024-01-11T14:05:10;5.40;;;1.52;;
24147;SDS011;12309;51.450;-2.624;2024-01-11T14:07:38;5.72;;;1.30;;
24147;SDS011;12309;51.450;-2.624;2024-01-11T14:10:05;6.85;;;1.60;;
24147;SDS011;12309;51.450;-2.624;2024-01-11T14:12:33;4.78;;;1.42;;
24147;SDS011;12309;51.450;-2.624;2024-01-11T14:15:00;4.00;;;1.23;;
24147;SDS011;12309;51.450;-2.624;2024-01-11T14:17:27;3.37;;;1.40;;
24147;SDS011;12309;51.450;-2.624;2024-01-11T14:19:53;4.63;;;1.50;;
24147;SDS011;12309;51.450;-2.624;2024-01-11T14:22:19;7.70;;;1.70;;
24147;SDS011;12309;51.450;-2.624;2024-01-11T14:24:44;8.57;;;1.70;;
24147;SDS011;12309;51.450;-2.624;2024-01-11T14:27:10;3.53;;;2.03;;
24147;SDS011;12309;51.450;-2.624;2024-01-11T14:29:36;5.33;;;2.10;;
24147;SDS011;12309;51.450;-2.624;2024-01-11T14:32:02;6.50;;;2.30;;
24147;SDS011;12309;51.450;-2.624;2024-01-11T14:34:46;5.03;;;2.00;;